createdAt,value
2019-01-17T00:00:19.007Z,2.10
2019-01-17T00:02:51.598Z,2.10
2019-01-17T00:05:39.250Z,2.10
2019-01-17T00:08:26.732Z,2.20
2019-01-17T00:10:57.813Z,2.10
2019-01-17T00:13:45.127Z,2.10
2019-01-17T00:16:31.580Z,2.00
2019-01-17T00:19:05.483Z,2.00
2019-01-17T00:21:56.499Z,2.00
2019-01-17T00:24:33.655Z,2.00
2019-01-17T00:27:10.329Z,2.10
2019-01-17T00:29:44.177Z,2.10
2019-01-17T00:32:15.295Z,2.10
2019-01-17T00:34:46.449Z,2.00
2019-01-17T00:37:29.687Z,2.10
2019-01-17T00:40:00.875Z,2.20
2019-01-17T00:42:39.266Z,2.10
2019-01-17T00:45:14.219Z,2.10
2019-01-17T00:47:58.740Z,2.00
2019-01-17T00:50:48.123Z,2.10
2019-01-17T00:53:19.181Z,2.00
2019-01-17T00:55:54.354Z,2.10
2019-01-17T00:58:37.639Z,2.20
2019-01-17T01:01:14.442Z,2.10
2019-01-17T01:03:45.499Z,2.00
2019-01-17T01:06:22.511Z,2.00
2019-01-17T01:08:53.646Z,2.00
2019-01-17T01:11:38.144Z,2.00
2019-01-17T01:14:09.277Z,2.00
2019-01-17T01:16:59.866Z,1.90
2019-01-17T01:19:46.206Z,1.90
2019-01-17T01:22:33.335Z,1.90
2019-01-17T01:25:10.167Z,1.80
2019-01-17T01:27:54.747Z,1.80
2019-01-17T01:30:35.071Z,1.80
2019-01-17T01:33:06.226Z,1.80
2019-01-17T01:35:40.051Z,1.90
2019-01-17T01:38:27.340Z,1.80
2019-01-17T01:40:58.463Z,1.80
2019-01-17T01:43:38.331Z,1.80
2019-01-17T01:46:21.542Z,1.80
2019-01-17T01:48:52.701Z,1.80
2019-01-17T01:51:25.040Z,1.80
2019-01-17T01:53:54.554Z,1.90
2019-01-17T01:56:25.437Z,1.90
2019-01-17T01:58:54.955Z,2.10
2019-01-17T02:01:25.643Z,2.10
2019-01-17T02:03:55.155Z,2.20
2019-01-17T02:06:24.716Z,2.20
2019-01-17T02:08:54.222Z,2.30
2019-01-17T02:11:25.295Z,2.30
2019-01-17T02:13:54.797Z,2.50
2019-01-17T02:16:24.266Z,2.50
2019-01-17T02:18:53.718Z,2.60
2019-01-17T02:21:23.120Z,2.60
2019-01-17T02:23:53.022Z,2.60
2019-01-17T02:26:22.490Z,2.50
2019-01-17T02:28:52.003Z,2.50
2019-01-17T02:31:22.980Z,3.00
2019-01-17T02:33:52.490Z,3.20
2019-01-17T02:36:23.367Z,3.40
2019-01-17T02:38:52.888Z,3.50
2019-01-17T02:41:23.563Z,3.60
2019-01-17T02:43:53.108Z,3.50
2019-01-17T02:46:22.646Z,3.50
2019-01-17T02:48:52.096Z,3.70
2019-01-17T02:51:23.058Z,3.70
2019-01-17T02:53:52.581Z,3.70
2019-01-17T02:56:22.062Z,3.60
2019-01-17T02:58:51.541Z,3.70
2019-01-17T03:01:22.250Z,3.70
2019-01-17T03:03:51.803Z,3.80
2019-01-17T03:06:21.317Z,3.70
2019-01-17T03:08:50.787Z,3.70
2019-01-17T03:11:21.600Z,3.80
2019-01-17T03:13:51.079Z,3.80
2019-01-17T03:16:20.612Z,3.90
2019-01-17T03:18:50.089Z,4.00
2019-01-17T03:21:20.792Z,4.10
2019-01-17T03:23:50.196Z,4.20
2019-01-17T03:26:19.702Z,4.10
2019-01-17T03:28:49.176Z,4.00
2019-01-17T03:31:20.109Z,3.90
2019-01-17T03:33:49.514Z,4.00
2019-01-17T03:36:19.019Z,4.00
2019-01-17T03:38:48.426Z,4.20
2019-01-17T03:41:19.136Z,4.20
2019-01-17T03:43:48.608Z,4.20
2019-01-17T03:46:19.426Z,4.30
2019-01-17T03:48:48.830Z,4.30
2019-01-17T03:51:18.340Z,4.40
2019-01-17T03:53:47.741Z,4.40
2019-01-17T03:56:21.589Z,4.50
2019-01-17T03:58:48.207Z,4.40
2019-01-17T04:01:17.642Z,4.40
2019-01-17T04:03:47.127Z,4.40
2019-01-17T04:06:16.571Z,4.30
2019-01-17T04:08:46.042Z,4.10
2019-01-17T04:11:16.864Z,4.00
2019-01-17T04:13:46.342Z,3.90
2019-01-17T04:16:15.823Z,3.80
2019-01-17T04:18:45.338Z,3.70
2019-01-17T04:21:14.812Z,3.60
2019-01-17T04:23:44.419Z,3.60
2019-01-17T04:26:15.100Z,3.60
2019-01-17T04:28:44.645Z,3.50
2019-01-17T04:31:15.326Z,3.50
2019-01-17T04:33:44.767Z,3.50
2019-01-17T04:36:14.181Z,3.50
2019-01-17T04:38:43.616Z,3.40
2019-01-17T04:41:14.292Z,3.50
2019-01-17T04:43:43.726Z,3.50
2019-01-17T04:46:14.605Z,3.50
2019-01-17T04:48:44.053Z,3.40
2019-01-17T04:51:14.719Z,3.50
2019-01-17T04:53:44.223Z,3.50
2019-01-17T04:56:14.903Z,3.40
2019-01-17T04:58:44.343Z,3.40
2019-01-17T05:01:13.748Z,3.40
2019-01-17T05:03:43.195Z,3.40
2019-01-17T05:06:12.768Z,3.30
2019-01-17T05:08:42.207Z,3.20
2019-01-17T05:11:12.874Z,3.10
2019-01-17T05:13:42.307Z,3.10
2019-01-17T05:16:13.087Z,3.10
2019-01-17T05:18:42.566Z,3.10
2019-01-17T05:21:12.075Z,3.10
2019-01-17T05:23:41.574Z,3.20
2019-01-17T05:26:11.084Z,3.30
2019-01-17T05:28:40.595Z,3.20
2019-01-17T05:31:11.317Z,3.30
2019-01-17T05:33:40.772Z,3.30
2019-01-17T05:36:11.360Z,3.20
2019-01-17T05:38:40.759Z,3.20
2019-01-17T05:41:11.721Z,3.10
2019-01-17T05:43:41.091Z,3.20
2019-01-17T05:46:11.794Z,3.20
2019-01-17T05:48:41.215Z,3.20
2019-01-17T05:51:10.643Z,3.20
2019-01-17T05:53:40.131Z,3.30
2019-01-17T05:56:11.201Z,3.20
2019-01-17T05:58:40.576Z,3.10
2019-01-17T06:01:11.289Z,3.10
2019-01-17T06:03:40.764Z,3.10
2019-01-17T06:06:11.766Z,3.10
2019-01-17T06:08:41.244Z,3.30
2019-01-17T06:11:10.682Z,3.20
2019-01-17T06:13:40.087Z,3.30
2019-01-17T06:16:10.831Z,3.30
2019-01-17T06:18:40.242Z,3.20
2019-01-17T06:21:10.859Z,3.10
2019-01-17T06:23:40.262Z,3.20
2019-01-17T06:26:11.074Z,3.10
2019-01-17T06:28:40.481Z,3.00
2019-01-17T06:31:11.382Z,3.10
2019-01-17T06:33:40.886Z,3.10
2019-01-17T06:36:11.822Z,3.10
2019-01-17T06:38:41.223Z,3.10
2019-01-17T06:41:10.723Z,3.20
2019-01-17T06:43:40.131Z,3.30
2019-01-17T06:46:10.940Z,3.40
2019-01-17T06:48:41.415Z,3.30
2019-01-17T06:51:10.859Z,3.40
2019-01-17T06:53:40.268Z,3.50
2019-01-17T06:56:09.795Z,3.50
2019-01-17T06:58:39.206Z,3.60
2019-01-17T07:01:08.638Z,3.70
2019-01-17T07:03:38.050Z,3.80
2019-01-17T07:06:08.982Z,3.80
2019-01-17T07:08:38.811Z,3.80
2019-01-17T07:11:09.720Z,3.90
2019-01-17T07:13:39.160Z,3.80
2019-01-17T07:16:09.931Z,3.80
2019-01-17T07:18:39.371Z,3.80
2019-01-17T07:21:10.153Z,3.80
2019-01-17T07:23:39.591Z,3.90
2019-01-17T07:26:08.994Z,3.90
2019-01-17T07:28:38.495Z,3.90
2019-01-17T07:31:07.963Z,4.00
2019-01-17T07:33:37.406Z,4.00
2019-01-17T07:36:08.176Z,4.00
2019-01-17T07:38:38.386Z,4.00
2019-01-17T07:41:07.795Z,4.10
2019-01-17T07:43:37.296Z,4.10
2019-01-17T07:46:06.699Z,4.10
2019-01-17T07:48:36.131Z,4.10
2019-01-17T07:51:05.535Z,4.10
2019-01-17T07:53:35.038Z,4.10
2019-01-17T07:56:04.601Z,4.10
2019-01-17T07:58:34.131Z,4.20
2019-01-17T08:01:04.800Z,4.20
2019-01-17T08:03:34.379Z,4.20
2019-01-17T08:06:03.781Z,4.30
2019-01-17T08:08:33.262Z,4.30
2019-01-17T08:11:02.771Z,4.30
2019-01-17T08:13:32.183Z,4.30
2019-01-17T08:16:03.162Z,4.20
2019-01-17T08:18:32.647Z,4.30
2019-01-17T08:21:03.356Z,4.30
2019-01-17T08:23:34.695Z,4.30
2019-01-17T08:26:05.546Z,4.30
2019-01-17T08:28:35.284Z,4.40
2019-01-17T08:31:06.267Z,4.50
2019-01-17T08:33:35.737Z,4.50
2019-01-17T08:36:06.530Z,4.60
2019-01-17T08:38:35.939Z,4.60
2019-01-17T08:41:05.448Z,4.50
2019-01-17T08:43:34.929Z,4.50
2019-01-17T08:46:04.383Z,4.60
2019-01-17T08:48:33.851Z,4.50
2019-01-17T08:51:03.360Z,4.30
2019-01-17T08:53:32.838Z,4.30
2019-01-17T08:56:02.284Z,4.20
2019-01-17T08:58:31.760Z,4.20
2019-01-17T09:01:01.194Z,4.20
2019-01-17T09:03:30.683Z,4.10
2019-01-17T09:06:02.001Z,4.10
2019-01-17T09:08:31.479Z,4.10
2019-01-17T09:11:02.332Z,4.10
2019-01-17T09:13:31.820Z,4.00
2019-01-17T09:16:01.306Z,4.00
2019-01-17T09:18:30.818Z,4.00
2019-01-17T09:21:01.707Z,4.10
2019-01-17T09:23:31.147Z,4.10
2019-01-17T09:26:00.559Z,4.10
2019-01-17T09:28:30.078Z,4.10
2019-01-17T09:31:00.863Z,4.00
2019-01-17T09:33:30.378Z,4.10
2019-01-17T09:35:59.867Z,4.10
2019-01-17T09:38:29.308Z,4.10
2019-01-17T09:40:58.728Z,4.00
2019-01-17T09:43:28.174Z,4.10
2019-01-17T09:45:58.962Z,4.10
2019-01-17T09:48:28.412Z,4.10
2019-01-17T09:50:57.822Z,4.30
2019-01-17T09:53:27.271Z,4.20
2019-01-17T09:55:57.945Z,4.20
2019-01-17T09:58:27.386Z,4.20
2019-01-17T10:00:56.875Z,4.30
2019-01-17T10:03:26.396Z,4.30
2019-01-17T10:05:55.879Z,4.30
2019-01-17T10:08:25.390Z,4.30
2019-01-17T10:10:56.278Z,4.40
2019-01-17T10:13:31.901Z,4.40
2019-01-17T10:16:01.404Z,4.40
2019-01-17T10:18:51.967Z,4.40
2019-01-17T10:21:24.634Z,4.40
2019-01-17T10:24:21.550Z,4.40
2019-01-17T10:27:12.020Z,4.50
2019-01-17T10:29:50.413Z,4.50
2019-01-17T10:32:35.168Z,4.60
2019-01-17T10:35:36.083Z,4.60
2019-01-17T10:38:35.831Z,4.60
2019-01-17T10:41:21.784Z,4.60
2019-01-17T10:44:06.544Z,4.70
2019-01-17T10:46:52.306Z,4.70
2019-01-17T10:49:50.634Z,4.70
2019-01-17T10:52:38.160Z,4.70
2019-01-17T10:55:38.226Z,4.70
2019-01-17T10:58:10.906Z,4.70
2019-01-17T11:00:55.668Z,4.70
2019-01-17T11:03:44.515Z,4.80
2019-01-17T11:06:39.770Z,4.80
2019-01-17T11:09:39.562Z,4.80
2019-01-17T11:12:21.161Z,5.00
2019-01-17T11:14:53.892Z,5.00
2019-01-17T11:17:37.262Z,5.20
2019-01-17T11:20:24.965Z,5.20
2019-01-17T11:23:22.050Z,5.40
2019-01-17T11:25:56.027Z,5.50
2019-01-17T11:28:58.875Z,5.70
2019-01-17T11:31:47.774Z,5.70
2019-01-17T11:34:38.569Z,5.70
2019-01-17T11:37:30.956Z,5.80
2019-01-17T11:40:18.575Z,5.80
2019-01-17T11:43:01.232Z,5.70
2019-01-17T11:45:55.438Z,5.80
2019-01-17T11:48:34.018Z,5.80
2019-01-17T11:51:19.978Z,5.80
2019-01-17T11:54:04.208Z,5.80
2019-01-17T11:56:47.218Z,5.80
2019-01-17T11:59:19.895Z,5.80
2019-01-17T12:02:15.315Z,5.70
2019-01-17T12:04:43.828Z,5.80
2019-01-17T12:07:15.470Z,5.60
2019-01-17T12:09:44.950Z,5.60
2019-01-17T12:12:17.403Z,5.60
2019-01-17T12:14:46.884Z,5.50
2019-01-17T12:17:16.324Z,5.50
2019-01-17T12:19:45.735Z,5.50
2019-01-17T12:22:15.165Z,5.50
2019-01-17T12:24:44.574Z,5.50
2019-01-17T12:27:14.016Z,5.50
2019-01-17T12:29:43.419Z,5.50
2019-01-17T12:32:12.928Z,5.50
2019-01-17T12:34:42.406Z,5.50
2019-01-17T12:37:13.087Z,5.50
2019-01-17T12:39:42.520Z,5.40
2019-01-17T12:42:13.291Z,5.40
2019-01-17T12:44:43.621Z,5.40
2019-01-17T12:47:13.175Z,5.40
2019-01-17T12:49:42.619Z,5.30
2019-01-17T12:52:12.033Z,5.40
2019-01-17T12:54:41.461Z,5.30
2019-01-17T12:57:12.235Z,5.30
2019-01-17T12:59:41.742Z,5.20
2019-01-17T13:02:12.624Z,5.30
2019-01-17T13:04:42.128Z,5.20
2019-01-17T13:07:11.532Z,5.20
2019-01-17T13:09:41.039Z,5.20
2019-01-17T13:12:10.454Z,5.10
2019-01-17T13:14:39.963Z,5.10
2019-01-17T13:17:10.936Z,5.10
2019-01-17T13:19:41.030Z,5.10
2019-01-17T13:22:11.754Z,5.10
2019-01-17T13:24:41.267Z,5.10
2019-01-17T13:27:12.059Z,5.10
2019-01-17T13:29:41.498Z,5.10
2019-01-17T13:32:10.899Z,5.20
2019-01-17T13:34:40.333Z,5.20
2019-01-17T13:37:11.208Z,5.20
2019-01-17T13:39:40.714Z,5.20
2019-01-17T13:42:11.397Z,5.20
2019-01-17T13:44:40.895Z,5.20
2019-01-17T13:47:11.975Z,5.10
2019-01-17T13:49:41.411Z,5.10
2019-01-17T13:52:10.883Z,5.10
2019-01-17T13:54:40.329Z,5.10
2019-01-17T13:57:09.799Z,5.10
2019-01-17T13:59:39.235Z,5.10
2019-01-17T14:02:08.642Z,5.10
2019-01-17T14:04:38.147Z,5.10
2019-01-17T14:07:07.552Z,5.10
2019-01-17T14:09:37.047Z,5.10
2019-01-17T14:12:07.988Z,5.20
2019-01-17T14:14:37.499Z,5.10
2019-01-17T14:17:08.276Z,5.20
2019-01-17T14:19:37.710Z,5.10
2019-01-17T14:22:08.387Z,5.20
2019-01-17T14:24:37.823Z,5.10
2019-01-17T14:29:39.503Z,5.10
2019-01-17T14:32:10.675Z,5.10
2019-01-17T14:34:40.540Z,5.10
2019-01-17T14:37:11.320Z,5.10
2019-01-17T14:39:40.815Z,5.00
2019-01-17T14:42:10.293Z,5.00
2019-01-17T14:44:39.795Z,5.00
2019-01-17T14:47:10.573Z,5.00
2019-01-17T14:49:40.753Z,4.90
2019-01-17T14:52:10.224Z,5.00
2019-01-17T14:54:39.726Z,5.00
2019-01-17T14:57:10.598Z,5.00
2019-01-17T14:59:40.048Z,5.00
2019-01-17T15:02:10.818Z,5.00
2019-01-17T15:04:40.331Z,5.00
2019-01-17T15:07:09.845Z,5.10
2019-01-17T15:09:39.255Z,5.00
2019-01-17T15:12:08.761Z,5.00
2019-01-17T15:14:38.172Z,4.90
2019-01-17T15:17:10.603Z,5.00
2019-01-17T15:19:40.086Z,5.00
2019-01-17T15:22:10.798Z,5.00
2019-01-17T15:24:40.204Z,4.90
2019-01-17T15:27:09.644Z,4.90
2019-01-17T15:29:39.113Z,4.90
2019-01-17T15:32:09.865Z,4.90
2019-01-17T15:34:39.298Z,4.80
2019-01-17T15:39:37.878Z,4.40
2019-01-17T15:42:08.990Z,4.20
2019-01-17T15:44:38.390Z,4.00
2019-01-17T15:47:13.159Z,3.80
2019-01-17T15:49:40.280Z,3.80
2019-01-17T15:52:09.718Z,3.80
2019-01-17T15:54:39.191Z,3.70
2019-01-17T15:57:09.991Z,3.70
2019-01-17T15:59:39.395Z,3.60
2019-01-17T16:02:08.905Z,3.60
2019-01-17T16:04:38.303Z,3.50
2019-01-17T16:07:07.744Z,3.50
2019-01-17T16:09:37.222Z,3.50
2019-01-17T16:12:06.734Z,3.50
2019-01-17T16:14:36.133Z,3.60
2019-01-17T16:17:07.144Z,3.60
2019-01-17T16:19:36.615Z,3.60
2019-01-17T16:22:06.124Z,3.50
2019-01-17T16:24:35.600Z,3.40
2019-01-17T16:27:05.238Z,3.40
2019-01-17T16:29:34.722Z,3.50
2019-01-17T16:32:04.227Z,3.40
2019-01-17T16:34:33.849Z,3.40
2019-01-17T16:37:03.416Z,3.40
2019-01-17T16:39:32.942Z,3.40
2019-01-17T16:42:03.777Z,3.60
2019-01-17T16:44:33.254Z,3.60
2019-01-17T16:47:03.994Z,3.50
2019-01-17T16:49:33.403Z,3.30
2019-01-17T16:52:04.223Z,3.30
2019-01-17T16:54:33.735Z,3.30
2019-01-17T16:57:04.402Z,3.20
2019-01-17T16:59:33.912Z,3.20
2019-01-17T17:02:03.687Z,3.10
2019-01-17T17:04:35.862Z,3.10
2019-01-17T17:07:05.265Z,3.10
2019-01-17T17:09:34.787Z,3.10
2019-01-17T17:12:05.556Z,3.20
2019-01-17T17:14:36.871Z,3.20
2019-01-17T17:17:09.307Z,3.20
2019-01-17T17:19:38.808Z,3.20
2019-01-17T17:22:09.648Z,3.30
2019-01-17T17:24:39.079Z,3.30
2019-01-17T17:27:08.482Z,3.40
2019-01-17T17:29:38.074Z,3.50
2019-01-17T17:32:08.780Z,3.50
2019-01-17T17:34:38.334Z,3.50
2019-01-17T17:39:38.273Z,3.40
2019-01-17T17:42:09.259Z,3.30
2019-01-17T17:44:38.770Z,3.40
2019-01-17T17:47:09.611Z,3.40
2019-01-17T17:49:39.533Z,3.30
2019-01-17T17:52:09.070Z,3.40
2019-01-17T17:54:40.934Z,3.40
2019-01-17T17:57:10.574Z,3.50
2019-01-17T17:59:40.786Z,3.50
2019-01-17T18:02:11.858Z,3.60
2019-01-17T18:04:41.363Z,3.50
2019-01-17T18:07:11.935Z,3.60
2019-01-17T18:09:41.478Z,3.60
2019-01-17T18:12:10.959Z,3.60
2019-01-17T18:14:40.441Z,3.60
2019-01-17T18:17:09.939Z,3.60
2019-01-17T18:19:39.424Z,3.60
2019-01-17T18:22:08.999Z,3.50
2019-01-17T18:24:38.412Z,3.20
2019-01-17T18:27:09.523Z,3.00
2019-01-17T18:29:38.951Z,2.60
2019-01-17T18:32:08.478Z,2.60
2019-01-17T18:34:37.907Z,2.40
2019-01-17T18:39:38.046Z,2.40
2019-01-17T18:42:07.557Z,2.30
2019-01-17T18:44:37.039Z,2.30
2019-01-17T18:47:07.758Z,2.30
2019-01-17T18:49:37.157Z,2.20
2019-01-17T18:52:06.600Z,2.10
2019-01-17T18:54:36.138Z,2.10
2019-01-17T18:57:07.051Z,2.10
2019-01-17T18:59:36.458Z,2.10
2019-01-17T19:02:05.975Z,2.10
2019-01-17T19:04:35.459Z,2.20
2019-01-17T19:07:04.911Z,2.20
2019-01-17T19:09:34.391Z,2.30
2019-01-17T19:12:05.203Z,2.10
2019-01-17T19:14:34.747Z,2.00
2019-01-17T19:17:05.567Z,1.90
2019-01-17T19:19:34.986Z,1.60
2019-01-17T19:22:04.968Z,1.60
2019-01-17T19:24:34.379Z,1.50
2019-01-17T19:27:05.259Z,1.50
2019-01-17T19:29:34.683Z,1.50
2019-01-17T19:32:04.159Z,1.50
2019-01-17T19:34:33.638Z,1.60
2019-01-17T19:37:04.499Z,1.60
2019-01-17T19:39:33.976Z,1.60
2019-01-17T19:42:03.459Z,1.60
2019-01-17T19:44:32.982Z,1.70
2019-01-17T19:47:04.059Z,1.60
2019-01-17T19:49:33.589Z,1.60
2019-01-17T19:52:03.541Z,1.70
2019-01-17T19:54:33.119Z,1.70
2019-01-17T19:57:03.907Z,1.70
2019-01-17T19:59:33.425Z,1.70
2019-01-17T20:02:04.266Z,1.70
2019-01-17T20:04:33.785Z,1.80
2019-01-17T20:07:03.255Z,1.80
2019-01-17T20:09:32.766Z,1.80
2019-01-17T20:12:03.815Z,1.70
2019-01-17T20:14:33.255Z,1.70
2019-01-17T20:17:02.675Z,1.70
2019-01-17T20:19:32.131Z,1.70
2019-01-17T20:22:02.906Z,1.70
2019-01-17T20:24:32.359Z,1.70
2019-01-17T20:27:01.767Z,1.80
2019-01-17T20:29:31.210Z,1.90
2019-01-17T20:32:00.695Z,1.90
2019-01-17T20:34:30.219Z,1.90
2019-01-17T20:37:00.902Z,1.90
2019-01-17T20:39:30.421Z,1.90
2019-01-17T20:42:01.268Z,1.90
2019-01-17T20:44:30.780Z,1.90
2019-01-17T20:47:01.464Z,1.90
2019-01-17T20:49:30.979Z,1.90
2019-01-17T20:52:02.058Z,1.90
2019-01-17T20:54:31.675Z,2.00
2019-01-17T20:57:02.729Z,1.70
2019-01-17T20:59:32.235Z,1.50
2019-01-17T21:02:10.188Z,1.40
2019-01-17T21:04:39.694Z,1.00
2019-01-17T21:07:09.598Z,0.90
2019-01-17T21:09:39.168Z,0.90
2019-01-17T21:12:10.079Z,0.90
2019-01-17T21:14:39.590Z,0.80
2019-01-17T21:17:10.379Z,0.80
2019-01-17T21:19:39.816Z,0.80
2019-01-17T21:22:10.593Z,0.70
2019-01-17T21:24:40.023Z,0.70
2019-01-17T21:27:09.526Z,0.70
2019-01-17T21:29:38.962Z,0.70
2019-01-17T21:32:09.722Z,0.80
2019-01-17T21:34:39.262Z,0.80
2019-01-17T21:37:10.134Z,0.80
2019-01-17T21:39:39.584Z,0.70
2019-01-17T21:42:10.594Z,0.80
2019-01-17T21:44:40.075Z,0.80
2019-01-17T21:47:09.515Z,0.80
2019-01-17T21:49:38.918Z,0.80
2019-01-17T21:52:08.358Z,0.80
2019-01-17T21:54:37.842Z,0.80
2019-01-17T21:57:07.354Z,0.80
2019-01-17T21:59:36.759Z,0.80
2019-01-17T22:02:06.198Z,0.90
2019-01-17T22:04:35.734Z,0.90
2019-01-17T22:07:05.168Z,0.90
2019-01-17T22:09:34.570Z,1.00
2019-01-17T22:12:04.073Z,1.00
2019-01-17T22:14:33.486Z,0.90
2019-01-17T22:17:02.993Z,1.00
2019-01-17T22:19:32.470Z,1.00
2019-01-17T22:22:01.922Z,1.00
2019-01-17T22:24:31.374Z,0.90
2019-01-17T22:27:00.884Z,0.80
2019-01-17T22:29:30.360Z,0.70
2019-01-17T22:31:59.796Z,0.60
2019-01-17T22:34:29.216Z,0.50
2019-01-17T22:36:58.649Z,0.40
2019-01-17T22:39:28.047Z,0.40
2019-01-17T22:41:58.758Z,0.40
2019-01-17T22:44:28.327Z,0.50
2019-01-17T22:46:57.735Z,0.50
2019-01-17T22:49:27.177Z,0.50
2019-01-17T22:51:56.632Z,0.50
2019-01-17T22:54:26.022Z,0.60
2019-01-17T22:56:57.275Z,0.50
2019-01-17T22:59:26.712Z,0.50
2019-01-17T23:01:56.186Z,0.50
2019-01-17T23:04:25.697Z,0.40
2019-01-17T23:06:56.566Z,0.50
2019-01-17T23:09:26.073Z,0.50
2019-01-17T23:11:56.955Z,0.50
2019-01-17T23:14:26.398Z,0.50
2019-01-17T23:16:57.079Z,0.60
2019-01-17T23:19:26.586Z,0.50
2019-01-17T23:21:55.994Z,0.50
2019-01-17T23:24:25.500Z,0.50
2019-01-17T23:26:54.907Z,0.50
2019-01-17T23:29:24.420Z,0.50
2019-01-17T23:31:53.829Z,0.50
2019-01-17T23:34:23.273Z,0.50
2019-01-17T23:36:54.048Z,0.50
2019-01-17T23:39:23.487Z,0.40
2019-01-17T23:41:54.255Z,0.40
2019-01-17T23:44:25.254Z,0.40
2019-01-17T23:46:56.031Z,0.40
2019-01-17T23:49:25.475Z,0.40
2019-01-17T23:51:54.907Z,0.40
2019-01-17T23:54:24.315Z,0.50
2019-01-17T23:56:53.751Z,0.60
2019-01-17T23:59:23.158Z,0.50
